Bentonville (XNA/KXNA)

Map

Destinations

Information

Location
Bentonville, AR
Local Time
17:29 / 5:29 pm
GMT Time
22:29 / 10:29 pm
Gates
Unassigned
No FAA reported delays
METAR KXNA 272153Z 30007KT 10SM OVC009 12/10 A2991 RMK AO2 SLP124 T01220100
TAF KXNA 272113Z 2721/2818 31008KT P6SM OVC009 FM280300 35002KT P6SM SCT250 FM280600 36002KT 4SM BR OVC015 FM281500 10004KT P6SM SCT015
  • No charts available